LFOA

Avord (BA 702) Air Base

Airport
ICAO code
LFOA
Summary
ICAO Region
EUR
ICAO Territory
Location

, Centre

Serving
Avord
Elevation
580 ft
Coordinates
47° 3' 12" N , 2° 37' 57" E
Metar
Observation
LFOA 091830Z AUTO 03004KT 9999 FEW015 M01/M02 Q1005
Station
Avord
Date/Time
2022-12-09 18:30:00
Wind direction
30°
Wind speed
04 kts
Lowest cloud amount
few clouds
Temperature
-1°C
Dew point
-2°C
Humidity
92%
QNH
1005 hPa
Weather condition
n/a

Runways

Designator Length Width Surface Rops
6/24 3503 45 ASP No/No

Airport map

Aerial View

SKYbrary Partners:

Safety knowledge contributed by: